sensor_id;sensor_type;location;lat;lon;timestamp;temperature;humidity
42339;DHT22;27993;45.392;10.918;2024-01-15T00:02:25;3.00;99.90
42339;DHT22;27993;45.392;10.918;2024-01-15T00:04:55;3.10;99.90
42339;DHT22;27993;45.392;10.918;2024-01-15T00:07:26;3.00;99.90
42339;DHT22;27993;45.392;10.918;2024-01-15T00:09:56;3.00;99.90
42339;DHT22;27993;45.392;10.918;2024-01-15T00:12:27;2.90;99.90
42339;DHT22;27993;45.392;10.918;2024-01-15T00:14:57;3.00;99.90
42339;DHT22;27993;45.392;10.918;2024-01-15T00:17:28;2.90;99.90
42339;DHT22;27993;45.392;10.918;2024-01-15T00:19:58;3.00;99.90
42339;DHT22;27993;45.392;10.918;2024-01-15T00:22:29;2.90;99.90
42339;DHT22;27993;45.392;10.918;2024-01-15T00:24:59;3.00;99.90
42339;DHT22;27993;45.392;10.918;2024-01-15T00:27:30;3.00;99.90
42339;DHT22;27993;45.392;10.918;2024-01-15T00:30:00;3.00;99.90
42339;DHT22;27993;45.392;10.918;2024-01-15T00:32:31;3.00;99.90
42339;DHT22;27993;45.392;10.918;2024-01-15T00:35:01;3.00;99.90
42339;DHT22;27993;45.392;10.918;2024-01-15T00:37:33;3.00;99.90
42339;DHT22;27993;45.392;10.918;2024-01-15T00:40:04;3.00;99.90
42339;DHT22;27993;45.392;10.918;2024-01-15T00:42:35;3.10;99.90
42339;DHT22;27993;45.392;10.918;2024-01-15T00:45:05;3.00;99.90
42339;DHT22;27993;45.392;10.918;2024-01-15T00:47:38;2.90;99.90
42339;DHT22;27993;45.392;10.918;2024-01-15T00:50:08;2.80;99.90
42339;DHT22;27993;45.392;10.918;2024-01-15T00:52:39;2.90;99.90
42339;DHT22;27993;45.392;10.918;2024-01-15T00:55:10;2.90;99.90
42339;DHT22;27993;45.392;10.918;2024-01-15T00:57:40;2.90;99.90
42339;DHT22;27993;45.392;10.918;2024-01-15T01:00:11;2.90;99.90
42339;DHT22;27993;45.392;10.918;2024-01-15T01:02:41;2.90;99.90
42339;DHT22;27993;45.392;10.918;2024-01-15T01:05:12;3.00;99.90
42339;DHT22;27993;45.392;10.918;2024-01-15T01:07:43;3.00;99.90
42339;DHT22;27993;45.392;10.918;2024-01-15T01:10:13;3.00;99.90
42339;DHT22;27993;45.392;10.918;2024-01-15T01:12:44;2.90;99.90
42339;DHT22;27993;45.392;10.918;2024-01-15T01:15:14;3.00;99.90
42339;DHT22;27993;45.392;10.918;2024-01-15T01:17:45;3.00;99.90
42339;DHT22;27993;45.392;10.918;2024-01-15T01:20:15;2.70;99.90
42339;DHT22;27993;45.392;10.918;2024-01-15T01:22:46;2.70;99.90
42339;DHT22;27993;45.392;10.918;2024-01-15T01:25:16;2.80;99.90
42339;DHT22;27993;45.392;10.918;2024-01-15T01:27:47;2.90;99.90
42339;DHT22;27993;45.392;10.918;2024-01-15T01:30:17;2.90;99.90
42339;DHT22;27993;45.392;10.918;2024-01-15T01:32:48;2.80;99.90
42339;DHT22;27993;45.392;10.918;2024-01-15T01:35:18;2.80;99.90
42339;DHT22;27993;45.392;10.918;2024-01-15T01:37:49;2.90;99.90
42339;DHT22;27993;45.392;10.918;2024-01-15T01:40:19;2.90;99.90
42339;DHT22;27993;45.392;10.918;2024-01-15T01:42:50;2.90;99.90
42339;DHT22;27993;45.392;10.918;2024-01-15T01:45:20;2.90;99.90
42339;DHT22;27993;45.392;10.918;2024-01-15T01:47:51;2.90;99.90
42339;DHT22;27993;45.392;10.918;2024-01-15T01:50:21;3.00;99.90
42339;DHT22;27993;45.392;10.918;2024-01-15T01:52:52;3.00;99.90
42339;DHT22;27993;45.392;10.918;2024-01-15T01:55:24;2.90;99.90
42339;DHT22;27993;45.392;10.918;2024-01-15T01:57:56;3.00;99.90
42339;DHT22;27993;45.392;10.918;2024-01-15T02:00:27;3.00;99.90
42339;DHT22;27993;45.392;10.918;2024-01-15T02:02:57;3.00;99.90
42339;DHT22;27993;45.392;10.918;2024-01-15T02:05:28;3.00;99.90
42339;DHT22;27993;45.392;10.918;2024-01-15T02:07:59;3.10;99.90
42339;DHT22;27993;45.392;10.918;2024-01-15T02:10:29;3.20;99.90
42339;DHT22;27993;45.392;10.918;2024-01-15T02:13:00;3.20;99.90
42339;DHT22;27993;45.392;10.918;2024-01-15T02:15:30;3.20;99.90
42339;DHT22;27993;45.392;10.918;2024-01-15T02:18:04;3.20;99.90
42339;DHT22;27993;45.392;10.918;2024-01-15T02:20:36;3.20;99.90
42339;DHT22;27993;45.392;10.918;2024-01-15T02:23:11;3.10;99.90
42339;DHT22;27993;45.392;10.918;2024-01-15T02:25:42;3.20;99.90
42339;DHT22;27993;45.392;10.918;2024-01-15T02:28:15;3.20;99.90
42339;DHT22;27993;45.392;10.918;2024-01-15T02:30:46;3.20;99.90
42339;DHT22;27993;45.392;10.918;2024-01-15T02:33:16;3.10;99.90
42339;DHT22;27993;45.392;10.918;2024-01-15T02:35:47;3.10;99.90
42339;DHT22;27993;45.392;10.918;2024-01-15T02:38:20;3.10;99.90
42339;DHT22;27993;45.392;10.918;2024-01-15T02:40:50;3.10;99.90
42339;DHT22;27993;45.392;10.918;2024-01-15T02:43:21;3.10;99.90
42339;DHT22;27993;45.392;10.918;2024-01-15T02:45:52;3.10;99.90
42339;DHT22;27993;45.392;10.918;2024-01-15T02:48:22;3.00;99.90
42339;DHT22;27993;45.392;10.918;2024-01-15T02:50:53;3.10;99.90
42339;DHT22;27993;45.392;10.918;2024-01-15T02:53:23;3.00;99.90
42339;DHT22;27993;45.392;10.918;2024-01-15T02:55:54;3.00;99.90
42339;DHT22;27993;45.392;10.918;2024-01-15T02:58:27;2.90;99.90
42339;DHT22;27993;45.392;10.918;2024-01-15T03:00:58;2.90;99.90
42339;DHT22;27993;45.392;10.918;2024-01-15T03:03:28;2.90;99.90
42339;DHT22;27993;45.392;10.918;2024-01-15T03:05:59;2.90;99.90
42339;DHT22;27993;45.392;10.918;2024-01-15T03:08:29;2.90;99.90
42339;DHT22;27993;45.392;10.918;2024-01-15T03:11:00;2.90;99.90
42339;DHT22;27993;45.392;10.918;2024-01-15T03:13:30;2.80;99.90
42339;DHT22;27993;45.392;10.918;2024-01-15T03:16:01;2.90;99.90
42339;DHT22;27993;45.392;10.918;2024-01-15T03:18:32;2.90;99.90
42339;DHT22;27993;45.392;10.918;2024-01-15T03:21:02;2.90;99.90
42339;DHT22;27993;45.392;10.918;2024-01-15T03:23:33;3.00;99.90
42339;DHT22;27993;45.392;10.918;2024-01-15T03:26:03;3.00;99.90
42339;DHT22;27993;45.392;10.918;2024-01-15T03:28:34;3.00;99.90
42339;DHT22;27993;45.392;10.918;2024-01-15T03:31:04;3.00;99.90
42339;DHT22;27993;45.392;10.918;2024-01-15T03:33:35;3.00;99.90
42339;DHT22;27993;45.392;10.918;2024-01-15T03:36:05;3.10;99.90
42339;DHT22;27993;45.392;10.918;2024-01-15T03:38:39;3.20;99.90
42339;DHT22;27993;45.392;10.918;2024-01-15T03:41:10;3.20;99.90
42339;DHT22;27993;45.392;10.918;2024-01-15T03:43:40;3.10;99.90
42339;DHT22;27993;45.392;10.918;2024-01-15T03:46:10;3.20;99.90
42339;DHT22;27993;45.392;10.918;2024-01-15T03:48:41;3.20;99.90
42339;DHT22;27993;45.392;10.918;2024-01-15T03:51:11;3.20;99.90
42339;DHT22;27993;45.392;10.918;2024-01-15T03:53:42;3.10;99.90
42339;DHT22;27993;45.392;10.918;2024-01-15T03:56:13;3.10;99.90
42339;DHT22;27993;45.392;10.918;2024-01-15T03:58:43;3.10;99.90
42339;DHT22;27993;45.392;10.918;2024-01-15T04:01:14;3.10;99.90
42339;DHT22;27993;45.392;10.918;2024-01-15T04:03:44;3.10;99.90
42339;DHT22;27993;45.392;10.918;2024-01-15T04:06:15;3.00;99.90
42339;DHT22;27993;45.392;10.918;2024-01-15T04:08:45;3.00;99.90
42339;DHT22;27993;45.392;10.918;2024-01-15T04:11:16;3.00;99.90
42339;DHT22;27993;45.392;10.918;2024-01-15T04:13:46;3.00;99.90
42339;DHT22;27993;45.392;10.918;2024-01-15T04:16:17;3.00;99.90
42339;DHT22;27993;45.392;10.918;2024-01-15T04:18:47;3.00;99.90
42339;DHT22;27993;45.392;10.918;2024-01-15T04:21:18;3.00;99.90
42339;DHT22;27993;45.392;10.918;2024-01-15T04:23:48;3.00;99.90
42339;DHT22;27993;45.392;10.918;2024-01-15T04:26:19;3.00;99.90
42339;DHT22;27993;45.392;10.918;2024-01-15T04:28:50;3.00;99.90
42339;DHT22;27993;45.392;10.918;2024-01-15T04:31:23;3.00;99.90
42339;DHT22;27993;45.392;10.918;2024-01-15T04:33:54;3.10;99.90
42339;DHT22;27993;45.392;10.918;2024-01-15T04:36:24;3.10;99.90
42339;DHT22;27993;45.392;10.918;2024-01-15T04:38:55;3.10;99.90
42339;DHT22;27993;45.392;10.918;2024-01-15T04:41:25;3.10;99.90
42339;DHT22;27993;45.392;10.918;2024-01-15T04:43:56;3.10;99.90
42339;DHT22;27993;45.392;10.918;2024-01-15T04:46:26;3.20;99.90
42339;DHT22;27993;45.392;10.918;2024-01-15T04:48:57;3.20;99.90
42339;DHT22;27993;45.392;10.918;2024-01-15T04:51:27;3.30;99.90
42339;DHT22;27993;45.392;10.918;2024-01-15T04:53:58;3.30;99.90
42339;DHT22;27993;45.392;10.918;2024-01-15T04:56:29;3.30;99.90
42339;DHT22;27993;45.392;10.918;2024-01-15T04:58:59;3.40;99.90
42339;DHT22;27993;45.392;10.918;2024-01-15T05:01:31;3.40;99.90
42339;DHT22;27993;45.392;10.918;2024-01-15T05:04:01;3.40;99.90
42339;DHT22;27993;45.392;10.918;2024-01-15T05:06:32;3.40;99.90
42339;DHT22;27993;45.392;10.918;2024-01-15T05:09:02;3.40;99.90
42339;DHT22;27993;45.392;10.918;2024-01-15T05:11:34;3.40;99.90
42339;DHT22;27993;45.392;10.918;2024-01-15T05:14:05;3.40;99.90
42339;DHT22;27993;45.392;10.918;2024-01-15T05:16:37;3.40;99.90
42339;DHT22;27993;45.392;10.918;2024-01-15T05:19:08;3.40;99.90
42339;DHT22;27993;45.392;10.918;2024-01-15T05:21:39;3.40;99.90
42339;DHT22;27993;45.392;10.918;2024-01-15T05:24:09;3.40;99.90
42339;DHT22;27993;45.392;10.918;2024-01-15T05:26:40;3.40;99.90
42339;DHT22;27993;45.392;10.918;2024-01-15T05:29:10;3.40;99.90
42339;DHT22;27993;45.392;10.918;2024-01-15T05:31:41;3.40;99.90
42339;DHT22;27993;45.392;10.918;2024-01-15T05:34:11;3.40;99.90
42339;DHT22;27993;45.392;10.918;2024-01-15T05:36:42;3.40;99.90
42339;DHT22;27993;45.392;10.918;2024-01-15T05:39:12;3.40;99.90
42339;DHT22;27993;45.392;10.918;2024-01-15T05:41:43;3.30;99.90
42339;DHT22;27993;45.392;10.918;2024-01-15T05:44:14;3.30;99.90
42339;DHT22;27993;45.392;10.918;2024-01-15T05:46:44;3.30;99.90
42339;DHT22;27993;45.392;10.918;2024-01-15T05:49:14;3.30;99.90
42339;DHT22;27993;45.392;10.918;2024-01-15T05:51:45;3.30;99.90
42339;DHT22;27993;45.392;10.918;2024-01-15T05:54:16;3.30;99.90
42339;DHT22;27993;45.392;10.918;2024-01-15T05:56:46;3.30;99.90
42339;DHT22;27993;45.392;10.918;2024-01-15T05:59:17;3.30;99.90
42339;DHT22;27993;45.392;10.918;2024-01-15T06:01:47;3.30;99.90
42339;DHT22;27993;45.392;10.918;2024-01-15T06:04:17;3.30;99.90
42339;DHT22;27993;45.392;10.918;2024-01-15T06:06:48;3.30;99.90
42339;DHT22;27993;45.392;10.918;2024-01-15T06:09:19;3.30;99.90
42339;DHT22;27993;45.392;10.918;2024-01-15T06:11:49;3.30;99.90
42339;DHT22;27993;45.392;10.918;2024-01-15T06:14:19;3.40;99.90
42339;DHT22;27993;45.392;10.918;2024-01-15T06:16:50;3.30;99.90
42339;DHT22;27993;45.392;10.918;2024-01-15T06:19:20;3.40;99.90
42339;DHT22;27993;45.392;10.918;2024-01-15T06:21:51;3.30;99.90
42339;DHT22;27993;45.392;10.918;2024-01-15T06:24:21;3.30;99.90
42339;DHT22;27993;45.392;10.918;2024-01-15T06:26:52;3.30;99.90
42339;DHT22;27993;45.392;10.918;2024-01-15T06:29:25;3.30;99.90
42339;DHT22;27993;45.392;10.918;2024-01-15T06:31:55;3.30;99.90
42339;DHT22;27993;45.392;10.918;2024-01-15T06:34:26;3.30;99.90
42339;DHT22;27993;45.392;10.918;2024-01-15T06:36:56;3.30;99.90
42339;DHT22;27993;45.392;10.918;2024-01-15T06:39:27;3.30;99.90
42339;DHT22;27993;45.392;10.918;2024-01-15T06:41:57;3.40;99.90
42339;DHT22;27993;45.392;10.918;2024-01-15T06:44:28;3.30;99.90
42339;DHT22;27993;45.392;10.918;2024-01-15T06:46:58;3.40;99.90
42339;DHT22;27993;45.392;10.918;2024-01-15T06:49:32;3.40;99.90
42339;DHT22;27993;45.392;10.918;2024-01-15T06:52:03;3.40;99.90
42339;DHT22;27993;45.392;10.918;2024-01-15T06:54:34;3.40;99.90
42339;DHT22;27993;45.392;10.918;2024-01-15T06:57:04;3.40;99.90
42339;DHT22;27993;45.392;10.918;2024-01-15T06:59:36;3.40;99.90
42339;DHT22;27993;45.392;10.918;2024-01-15T07:02:07;3.40;99.90
42339;DHT22;27993;45.392;10.918;2024-01-15T07:04:37;3.50;99.90
42339;DHT22;27993;45.392;10.918;2024-01-15T07:07:08;3.50;99.90
42339;DHT22;27993;45.392;10.918;2024-01-15T07:09:39;3.50;99.90
42339;DHT22;27993;45.392;10.918;2024-01-15T07:12:09;3.50;99.90
42339;DHT22;27993;45.392;10.918;2024-01-15T07:14:40;3.50;99.90
42339;DHT22;27993;45.392;10.918;2024-01-15T07:17:10;3.50;99.90
42339;DHT22;27993;45.392;10.918;2024-01-15T07:19:41;3.50;99.90
42339;DHT22;27993;45.392;10.918;2024-01-15T07:22:12;3.60;99.90
42339;DHT22;27993;45.392;10.918;2024-01-15T07:24:42;3.60;99.90
42339;DHT22;27993;45.392;10.918;2024-01-15T07:27:13;3.60;99.90
42339;DHT22;27993;45.392;10.918;2024-01-15T07:29:43;3.60;99.90
42339;DHT22;27993;45.392;10.918;2024-01-15T07:32:14;3.60;99.90
42339;DHT22;27993;45.392;10.918;2024-01-15T07:34:45;3.60;99.90
42339;DHT22;27993;45.392;10.918;2024-01-15T07:37:15;3.70;99.90
42339;DHT22;27993;45.392;10.918;2024-01-15T07:39:46;3.80;99.90
42339;DHT22;27993;45.392;10.918;2024-01-15T07:42:16;3.80;99.90
42339;DHT22;27993;45.392;10.918;2024-01-15T07:44:47;3.90;99.90
42339;DHT22;27993;45.392;10.918;2024-01-15T07:47:17;3.90;99.90
42339;DHT22;27993;45.392;10.918;2024-01-15T07:49:48;4.00;99.90
42339;DHT22;27993;45.392;10.918;2024-01-15T07:52:19;4.10;99.90
42339;DHT22;27993;45.392;10.918;2024-01-15T07:54:49;4.10;99.90
42339;DHT22;27993;45.392;10.918;2024-01-15T07:57:20;4.10;99.90
42339;DHT22;27993;45.392;10.918;2024-01-15T07:59:50;4.10;99.90
42339;DHT22;27993;45.392;10.918;2024-01-15T08:02:21;4.10;99.90
42339;DHT22;27993;45.392;10.918;2024-01-15T08:04:52;4.10;99.90
42339;DHT22;27993;45.392;10.918;2024-01-15T08:07:22;4.20;99.90
42339;DHT22;27993;45.392;10.918;2024-01-15T08:09:53;4.10;99.90
42339;DHT22;27993;45.392;10.918;2024-01-15T08:12:23;4.10;99.90
42339;DHT22;27993;45.392;10.918;2024-01-15T08:14:54;4.20;99.90
42339;DHT22;27993;45.392;10.918;2024-01-15T08:17:24;4.10;99.90
42339;DHT22;27993;45.392;10.918;2024-01-15T08:19:58;4.10;99.90
42339;DHT22;27993;45.392;10.918;2024-01-15T08:22:30;4.10;99.90
42339;DHT22;27993;45.392;10.918;2024-01-15T08:25:01;4.20;99.90
42339;DHT22;27993;45.392;10.918;2024-01-15T08:27:31;4.20;99.90
42339;DHT22;27993;45.392;10.918;2024-01-15T08:30:02;4.30;99.90
42339;DHT22;27993;45.392;10.918;2024-01-15T08:32:34;4.30;99.90
42339;DHT22;27993;45.392;10.918;2024-01-15T08:35:11;4.20;99.90
42339;DHT22;27993;45.392;10.918;2024-01-15T08:37:41;4.30;99.90
42339;DHT22;27993;45.392;10.918;2024-01-15T08:40:12;4.40;99.90
42339;DHT22;27993;45.392;10.918;2024-01-15T08:42:42;4.40;99.90
42339;DHT22;27993;45.392;10.918;2024-01-15T08:45:13;4.50;99.90
42339;DHT22;27993;45.392;10.918;2024-01-15T08:47:43;4.70;99.90
42339;DHT22;27993;45.392;10.918;2024-01-15T08:50:14;4.80;99.90
42339;DHT22;27993;45.392;10.918;2024-01-15T08:52:45;4.90;99.90
42339;DHT22;27993;45.392;10.918;2024-01-15T08:55:16;5.10;99.90
42339;DHT22;27993;45.392;10.918;2024-01-15T08:57:47;5.20;99.90
42339;DHT22;27993;45.392;10.918;2024-01-15T09:00:17;5.30;99.90
42339;DHT22;27993;45.392;10.918;2024-01-15T09:02:48;5.50;99.90
42339;DHT22;27993;45.392;10.918;2024-01-15T09:05:18;5.50;99.90
42339;DHT22;27993;45.392;10.918;2024-01-15T09:07:49;5.50;99.90
42339;DHT22;27993;45.392;10.918;2024-01-15T09:10:22;5.60;99.90
42339;DHT22;27993;45.392;10.918;2024-01-15T09:12:52;5.80;99.90
42339;DHT22;27993;45.392;10.918;2024-01-15T09:15:23;5.90;99.90
42339;DHT22;27993;45.392;10.918;2024-01-15T09:17:54;5.90;99.90
42339;DHT22;27993;45.392;10.918;2024-01-15T09:20:25;5.90;99.90
42339;DHT22;27993;45.392;10.918;2024-01-15T09:22:58;5.90;99.90
42339;DHT22;27993;45.392;10.918;2024-01-15T09:25:29;5.90;99.90
42339;DHT22;27993;45.392;10.918;2024-01-15T09:27:59;6.00;99.90
42339;DHT22;27993;45.392;10.918;2024-01-15T09:30:30;6.00;99.90
42339;DHT22;27993;45.392;10.918;2024-01-15T09:33:00;6.10;99.90
42339;DHT22;27993;45.392;10.918;2024-01-15T09:35:31;6.30;99.90
42339;DHT22;27993;45.392;10.918;2024-01-15T09:38:01;6.40;99.90
42339;DHT22;27993;45.392;10.918;2024-01-15T09:40:32;6.40;99.90
42339;DHT22;27993;45.392;10.918;2024-01-15T09:43:05;6.30;99.90
42339;DHT22;27993;45.392;10.918;2024-01-15T09:45:36;6.30;99.90
42339;DHT22;27993;45.392;10.918;2024-01-15T09:48:07;6.30;99.90
42339;DHT22;27993;45.392;10.918;2024-01-15T09:50:37;6.30;99.90
42339;DHT22;27993;45.392;10.918;2024-01-15T09:53:08;6.30;99.90
42339;DHT22;27993;45.392;10.918;2024-01-15T09:55:39;6.50;99.90
42339;DHT22;27993;45.392;10.918;2024-01-15T09:58:10;6.70;99.90
42339;DHT22;27993;45.392;10.918;2024-01-15T10:00:40;6.80;99.90
42339;DHT22;27993;45.392;10.918;2024-01-15T10:03:12;6.90;99.90
42339;DHT22;27993;45.392;10.918;2024-01-15T10:05:43;7.10;99.90
42339;DHT22;27993;45.392;10.918;2024-01-15T10:08:14;7.20;99.90
42339;DHT22;27993;45.392;10.918;2024-01-15T10:10:44;7.70;99.90
42339;DHT22;27993;45.392;10.918;2024-01-15T10:13:15;7.80;99.90
42339;DHT22;27993;45.392;10.918;2024-01-15T10:15:45;7.60;99.90
42339;DHT22;27993;45.392;10.918;2024-01-15T10:18:17;7.80;99.90
42339;DHT22;27993;45.392;10.918;2024-01-15T10:20:47;7.90;99.90
42339;DHT22;27993;45.392;10.918;2024-01-15T10:23:18;7.80;99.90
42339;DHT22;27993;45.392;10.918;2024-01-15T10:25:49;7.70;99.90
42339;DHT22;27993;45.392;10.918;2024-01-15T10:28:21;7.60;99.90
42339;DHT22;27993;45.392;10.918;2024-01-15T10:30:52;7.60;99.90
42339;DHT22;27993;45.392;10.918;2024-01-15T10:33:24;7.80;99.90
42339;DHT22;27993;45.392;10.918;2024-01-15T10:35:56;8.10;99.90
42339;DHT22;27993;45.392;10.918;2024-01-15T10:38:27;8.10;99.90
42339;DHT22;27993;45.392;10.918;2024-01-15T10:40:57;8.10;99.90
42339;DHT22;27993;45.392;10.918;2024-01-15T10:43:28;8.10;99.90
42339;DHT22;27993;45.392;10.918;2024-01-15T10:45:59;8.00;99.90
42339;DHT22;27993;45.392;10.918;2024-01-15T10:48:30;8.10;99.90
42339;DHT22;27993;45.392;10.918;2024-01-15T10:51:01;8.00;99.90
42339;DHT22;27993;45.392;10.918;2024-01-15T10:53:40;7.80;99.90
42339;DHT22;27993;45.392;10.918;2024-01-15T10:56:11;7.90;99.90
42339;DHT22;27993;45.392;10.918;2024-01-15T10:58:43;7.80;99.90
42339;DHT22;27993;45.392;10.918;2024-01-15T11:01:14;7.80;99.90
42339;DHT22;27993;45.392;10.918;2024-01-15T11:03:44;7.70;99.90
42339;DHT22;27993;45.392;10.918;2024-01-15T11:06:18;7.70;99.90
42339;DHT22;27993;45.392;10.918;2024-01-15T11:08:52;7.70;99.90
42339;DHT22;27993;45.392;10.918;2024-01-15T11:11:22;7.60;99.90
42339;DHT22;27993;45.392;10.918;2024-01-15T11:13:53;7.60;99.90
42339;DHT22;27993;45.392;10.918;2024-01-15T11:16:24;7.60;99.90
42339;DHT22;27993;45.392;10.918;2024-01-15T11:21:28;9.00;99.90
42339;DHT22;27993;45.392;10.918;2024-01-15T11:24:00;9.20;99.90
42339;DHT22;27993;45.392;10.918;2024-01-15T11:29:05;9.00;99.90
42339;DHT22;27993;45.392;10.918;2024-01-15T11:34:10;8.70;99.90
42339;DHT22;27993;45.392;10.918;2024-01-15T11:41:58;8.00;99.90
42339;DHT22;27993;45.392;10.918;2024-01-15T11:44:28;7.80;99.90
42339;DHT22;27993;45.392;10.918;2024-01-15T11:52:20;8.10;99.90
42339;DHT22;27993;45.392;10.918;2024-01-15T11:55:14;8.10;99.90
42339;DHT22;27993;45.392;10.918;2024-01-15T11:57:49;8.00;99.90
42339;DHT22;27993;45.392;10.918;2024-01-15T12:00:23;8.20;99.90
42339;DHT22;27993;45.392;10.918;2024-01-15T12:02:54;8.00;99.90
42339;DHT22;27993;45.392;10.918;2024-01-15T12:05:24;7.90;99.90
42339;DHT22;27993;45.392;10.918;2024-01-15T12:07:55;8.10;99.90
42339;DHT22;27993;45.392;10.918;2024-01-15T12:10:25;8.10;99.90
42339;DHT22;27993;45.392;10.918;2024-01-15T12:13:00;8.30;99.90
42339;DHT22;27993;45.392;10.918;2024-01-15T12:15:33;8.40;99.90
42339;DHT22;27993;45.392;10.918;2024-01-15T12:18:04;8.10;99.90
42339;DHT22;27993;45.392;10.918;2024-01-15T12:20:34;7.90;99.90
42339;DHT22;27993;45.392;10.918;2024-01-15T12:23:06;8.10;99.90
42339;DHT22;27993;45.392;10.918;2024-01-15T12:25:36;8.50;99.90
42339;DHT22;27993;45.392;10.918;2024-01-15T12:28:07;8.30;99.90
42339;DHT22;27993;45.392;10.918;2024-01-15T12:30:38;8.10;99.90
42339;DHT22;27993;45.392;10.918;2024-01-15T12:33:09;8.10;99.90
42339;DHT22;27993;45.392;10.918;2024-01-15T12:35:39;8.20;99.90
42339;DHT22;27993;45.392;10.918;2024-01-15T12:38:10;8.30;99.90
42339;DHT22;27993;45.392;10.918;2024-01-15T12:40:40;8.30;99.90
42339;DHT22;27993;45.392;10.918;2024-01-15T12:43:16;8.30;99.90
42339;DHT22;27993;45.392;10.918;2024-01-15T12:45:47;8.40;99.90
42339;DHT22;27993;45.392;10.918;2024-01-15T12:48:17;8.20;99.90
42339;DHT22;27993;45.392;10.918;2024-01-15T12:50:48;8.30;99.90
42339;DHT22;27993;45.392;10.918;2024-01-15T12:53:18;8.70;99.90
42339;DHT22;27993;45.392;10.918;2024-01-15T12:55:49;8.80;99.90
42339;DHT22;27993;45.392;10.918;2024-01-15T12:58:20;9.00;99.90
42339;DHT22;27993;45.392;10.918;2024-01-15T13:00:50;9.30;99.90
42339;DHT22;27993;45.392;10.918;2024-01-15T13:03:22;9.30;99.90
42339;DHT22;27993;45.392;10.918;2024-01-15T13:05:52;9.30;99.90
42339;DHT22;27993;45.392;10.918;2024-01-15T13:08:23;9.10;99.90
42339;DHT22;27993;45.392;10.918;2024-01-15T13:10:56;9.10;99.90
42339;DHT22;27993;45.392;10.918;2024-01-15T13:13:27;9.00;99.90
42339;DHT22;27993;45.392;10.918;2024-01-15T13:15:58;9.00;99.90
42339;DHT22;27993;45.392;10.918;2024-01-15T13:18:28;8.90;99.90
42339;DHT22;27993;45.392;10.918;2024-01-15T13:20:59;9.20;99.90
42339;DHT22;27993;45.392;10.918;2024-01-15T13:23:30;9.20;99.90
42339;DHT22;27993;45.392;10.918;2024-01-15T13:26:01;9.10;99.90
42339;DHT22;27993;45.392;10.918;2024-01-15T13:28:31;9.00;99.90
42339;DHT22;27993;45.392;10.918;2024-01-15T13:31:02;9.10;99.90
42339;DHT22;27993;45.392;10.918;2024-01-15T13:33:32;9.00;99.90
42339;DHT22;27993;45.392;10.918;2024-01-15T13:36:03;8.80;99.90
42339;DHT22;27993;45.392;10.918;2024-01-15T13:38:34;8.70;99.90
42339;DHT22;27993;45.392;10.918;2024-01-15T13:41:07;8.90;99.90
42339;DHT22;27993;45.392;10.918;2024-01-15T13:43:38;9.00;99.90
42339;DHT22;27993;45.392;10.918;2024-01-15T13:46:08;9.00;99.90
42339;DHT22;27993;45.392;10.918;2024-01-15T13:48:40;8.80;99.90
42339;DHT22;27993;45.392;10.918;2024-01-15T13:51:10;8.70;99.90
42339;DHT22;27993;45.392;10.918;2024-01-15T13:53:42;8.60;99.90
42339;DHT22;27993;45.392;10.918;2024-01-15T13:56:12;8.50;99.90
42339;DHT22;27993;45.392;10.918;2024-01-15T13:58:42;8.50;99.90
42339;DHT22;27993;45.392;10.918;2024-01-15T14:01:13;8.40;99.90
42339;DHT22;27993;45.392;10.918;2024-01-15T14:03:44;8.30;99.90
42339;DHT22;27993;45.392;10.918;2024-01-15T14:06:15;8.30;99.90
42339;DHT22;27993;45.392;10.918;2024-01-15T14:08:45;8.20;99.90
42339;DHT22;27993;45.392;10.918;2024-01-15T14:11:15;8.10;99.90
42339;DHT22;27993;45.392;10.918;2024-01-15T14:13:46;8.10;99.90
42339;DHT22;27993;45.392;10.918;2024-01-15T14:16:17;8.20;99.90
42339;DHT22;27993;45.392;10.918;2024-01-15T14:18:48;8.30;99.90
42339;DHT22;27993;45.392;10.918;2024-01-15T14:21:18;8.40;99.90
42339;DHT22;27993;45.392;10.918;2024-01-15T14:23:49;8.30;99.90
42339;DHT22;27993;45.392;10.918;2024-01-15T14:26:19;7.70;99.90
42339;DHT22;27993;45.392;10.918;2024-01-15T14:28:50;7.20;99.90
42339;DHT22;27993;45.392;10.918;2024-01-15T14:31:20;6.90;99.90
42339;DHT22;27993;45.392;10.918;2024-01-15T14:33:51;6.80;99.90
42339;DHT22;27993;45.392;10.918;2024-01-15T14:36:22;6.80;99.90
42339;DHT22;27993;45.392;10.918;2024-01-15T14:38:52;6.70;99.90
42339;DHT22;27993;45.392;10.918;2024-01-15T14:41:23;6.90;99.90
42339;DHT22;27993;45.392;10.918;2024-01-15T14:43:53;6.60;99.90
42339;DHT22;27993;45.392;10.918;2024-01-15T14:46:24;6.90;99.90
42339;DHT22;27993;45.392;10.918;2024-01-15T14:48:54;6.60;99.90
42339;DHT22;27993;45.392;10.918;2024-01-15T14:51:25;6.50;99.90
42339;DHT22;27993;45.392;10.918;2024-01-15T14:53:55;6.80;99.90
42339;DHT22;27993;45.392;10.918;2024-01-15T14:56:26;6.50;99.90
42339;DHT22;27993;45.392;10.918;2024-01-15T14:58:56;6.30;99.90
42339;DHT22;27993;45.392;10.918;2024-01-15T15:01:27;6.40;99.90
42339;DHT22;27993;45.392;10.918;2024-01-15T15:03:57;6.40;99.90
42339;DHT22;27993;45.392;10.918;2024-01-15T15:06:28;6.30;99.90
42339;DHT22;27993;45.392;10.918;2024-01-15T15:08:59;5.90;99.90
42339;DHT22;27993;45.392;10.918;2024-01-15T15:11:30;5.60;99.90
42339;DHT22;27993;45.392;10.918;2024-01-15T15:14:02;6.50;99.90
42339;DHT22;27993;45.392;10.918;2024-01-15T15:16:34;5.70;99.90
42339;DHT22;27993;45.392;10.918;2024-01-15T15:19:04;6.00;99.90
42339;DHT22;27993;45.392;10.918;2024-01-15T15:21:35;6.20;99.90
42339;DHT22;27993;45.392;10.918;2024-01-15T15:24:05;6.20;99.90
42339;DHT22;27993;45.392;10.918;2024-01-15T15:26:36;6.30;99.90
42339;DHT22;27993;45.392;10.918;2024-01-15T15:29:07;6.20;99.90
42339;DHT22;27993;45.392;10.918;2024-01-15T15:31:37;5.80;99.90
42339;DHT22;27993;45.392;10.918;2024-01-15T15:34:08;6.70;99.90
42339;DHT22;27993;45.392;10.918;2024-01-15T15:36:39;7.70;99.90
42339;DHT22;27993;45.392;10.918;2024-01-15T15:39:10;8.30;99.90
42339;DHT22;27993;45.392;10.918;2024-01-15T15:41:40;8.20;99.90
42339;DHT22;27993;45.392;10.918;2024-01-15T15:44:10;8.10;99.90
42339;DHT22;27993;45.392;10.918;2024-01-15T15:46:43;7.80;99.90
42339;DHT22;27993;45.392;10.918;2024-01-15T15:49:14;7.80;99.90
42339;DHT22;27993;45.392;10.918;2024-01-15T15:51:44;7.90;99.90
42339;DHT22;27993;45.392;10.918;2024-01-15T15:54:15;7.90;99.90
42339;DHT22;27993;45.392;10.918;2024-01-15T15:56:45;8.00;99.90
42339;DHT22;27993;45.392;10.918;2024-01-15T15:59:20;7.50;99.90
42339;DHT22;27993;45.392;10.918;2024-01-15T16:01:51;7.40;99.90
42339;DHT22;27993;45.392;10.918;2024-01-15T16:04:22;7.50;99.90
42339;DHT22;27993;45.392;10.918;2024-01-15T16:06:52;7.50;99.90
42339;DHT22;27993;45.392;10.918;2024-01-15T16:09:23;7.10;99.90
42339;DHT22;27993;45.392;10.918;2024-01-15T16:11:54;6.90;99.90